Murmansk, Russia
Current Conditions -  °F | °C
As of 5:00 AM on Monday 26 Jan 2015 (Local Time) from ULMM Reporting Station
Broken Clouds Broken Clouds  
Wind Chill:   Ceiling: 2100
Heat Index:   Visibility: 6mi
Dew Point: -2°   Wind: 0mph
Humidity: 78%   Direction: NA
Pressure: 29.77"   Gusts: NA
Location:  68.96°N, 33.08°E
Report Text: ULMM 260200Z 00000MPS 9999 BKN021 M16/M19 Q1008 NOSIG RMK QFE749 31490237
Loading
Personal Weather Stations






























Interactive Weather Map New forecast layout! Learn more

10-Day Weather Forecast

Advertisements
Track Severe Weather on mobile